createdAt,value
2022-11-13T00:01:48.768Z,95243.09
2022-11-13T00:04:34.375Z,95233.84
2022-11-13T00:07:19.488Z,95230.38
2022-11-13T00:10:05.432Z,95230.34
2022-11-13T00:12:50.622Z,95224.00
2022-11-13T00:15:36.179Z,95217.41
2022-11-13T00:18:21.106Z,95219.56
2022-11-13T00:21:27.391Z,95222.22
2022-11-13T00:24:12.788Z,95215.56
2022-11-13T00:26:57.959Z,95212.13
2022-11-13T00:29:43.561Z,95206.28
2022-11-13T00:32:28.696Z,95203.06
2022-11-13T00:35:14.236Z,95195.13
2022-11-13T00:37:59.484Z,95193.53
2022-11-13T00:40:44.776Z,95190.38
2022-11-13T00:43:30.106Z,95194.09
2022-11-13T00:46:15.299Z,95177.38
2022-11-13T00:49:03.499Z,95179.75
2022-11-13T00:51:48.809Z,95181.06
2022-11-13T00:54:34.711Z,95171.00
2022-11-13T00:57:20.395Z,95171.78
2022-11-13T01:00:06.711Z,95169.13
2022-11-13T01:02:51.592Z,95166.19
2022-11-13T01:05:42.202Z,95159.25
2022-11-13T01:08:27.669Z,95156.88
2022-11-13T01:11:16.060Z,95164.56
2022-11-13T01:14:01.299Z,95162.19
2022-11-13T01:16:46.618Z,95159.00
2022-11-13T01:19:31.863Z,95156.09
2022-11-13T01:22:17.293Z,95159.47
2022-11-13T01:25:02.585Z,95154.69
2022-11-13T01:27:47.994Z,95150.44
2022-11-13T01:30:33.247Z,95161.28
2022-11-13T01:33:18.756Z,95145.94
2022-11-13T01:36:08.754Z,95148.59
2022-11-13T01:38:54.738Z,95125.00
2022-11-13T01:41:40.545Z,95131.66
2022-11-13T01:44:25.577Z,95124.22
2022-11-13T01:47:11.059Z,95123.97
2022-11-13T01:49:59.122Z,95117.38
2022-11-13T01:52:44.556Z,95121.34
2022-11-13T01:55:30.033Z,95110.72
2022-11-13T01:58:16.441Z,95108.59
2022-11-13T02:01:01.772Z,95101.72
2022-11-13T02:03:47.367Z,95100.91
2022-11-13T02:06:52.494Z,95089.75
2022-11-13T02:09:43.486Z,95096.59
2022-11-13T02:12:34.253Z,95092.63
2022-11-13T02:15:23.674Z,95094.72
2022-11-13T02:18:09.976Z,95082.81
2022-11-13T02:21:06.108Z,95088.13
2022-11-13T02:24:02.634Z,95078.06
2022-11-13T02:26:51.090Z,95075.69
2022-11-13T02:29:36.649Z,95076.25
2022-11-13T02:32:21.897Z,95072.53
2022-11-13T02:35:07.436Z,95070.38
2022-11-13T02:37:53.065Z,95067.19
2022-11-13T02:40:39.510Z,95062.75
2022-11-13T02:43:24.847Z,95060.06
2022-11-13T02:46:10.212Z,95054.72
2022-11-13T02:48:55.275Z,95056.50
2022-11-13T02:51:40.460Z,95055.72
2022-11-13T02:54:25.718Z,95059.16
2022-11-13T02:57:11.152Z,95050.94
2022-11-13T02:59:56.683Z,95047.97
2022-11-13T03:02:42.336Z,95048.81
2022-11-13T03:05:27.470Z,95044.81
2022-11-13T03:08:12.640Z,95047.47
2022-11-13T03:10:57.915Z,95038.53
2022-11-13T03:13:43.294Z,95038.81
2022-11-13T03:16:28.517Z,95040.16
2022-11-13T03:19:14.850Z,95042.00
2022-11-13T03:21:59.951Z,95041.69
2022-11-13T03:24:45.405Z,95039.59
2022-11-13T03:27:32.298Z,95028.91
2022-11-13T03:30:18.150Z,95031.56
2022-11-13T03:33:03.337Z,95024.69
2022-11-13T03:35:48.523Z,95026.25
2022-11-13T03:38:34.476Z,95023.09
2022-11-13T03:41:21.279Z,95019.38
2022-11-13T03:44:06.695Z,95017.25
2022-11-13T03:46:52.066Z,95009.50
2022-11-13T03:49:37.213Z,95013.19
2022-11-13T03:52:22.472Z,95010.88
2022-11-13T03:55:08.180Z,95011.13
2022-11-13T03:57:53.044Z,95009.25
2022-11-13T04:00:40.149Z,95019.28
2022-11-13T04:03:25.145Z,95006.81
2022-11-13T04:06:10.495Z,95011.88
2022-11-13T04:08:55.847Z,95005.59
2022-11-13T04:11:41.310Z,94992.59
2022-11-13T04:14:26.686Z,94987.38
2022-11-13T04:17:11.984Z,94990.25
2022-11-13T04:19:57.373Z,94987.56
2022-11-13T04:22:43.074Z,94978.63
2022-11-13T04:25:28.295Z,94978.34
2022-11-13T04:28:13.560Z,94966.47
2022-11-13T04:30:58.908Z,94970.50
2022-11-13T04:33:44.267Z,94964.41
2022-11-13T04:36:29.587Z,94963.09
2022-11-13T04:39:14.991Z,94956.19
2022-11-13T04:42:19.057Z,94958.06
2022-11-13T04:45:04.813Z,94949.31
2022-11-13T04:47:51.593Z,94957.78
2022-11-13T04:50:36.938Z,94951.94
2022-11-13T04:53:22.229Z,94945.06
2022-11-13T04:56:07.602Z,94950.59
2022-11-13T04:58:52.864Z,94946.91
2022-11-13T05:01:38.246Z,94944.25
2022-11-13T05:04:23.832Z,94942.94
2022-11-13T05:07:08.912Z,94950.88
2022-11-13T05:09:54.452Z,94943.44
2022-11-13T05:12:39.611Z,94941.84
2022-11-13T05:15:24.979Z,94937.88
2022-11-13T05:18:10.242Z,94940.00
2022-11-13T05:20:55.607Z,94937.91
2022-11-13T05:23:41.119Z,94940.50
2022-11-13T05:26:26.576Z,94934.97
2022-11-13T05:29:11.704Z,94940.50
2022-11-13T05:31:56.799Z,94934.63
2022-11-13T05:34:42.278Z,94928.25
2022-11-13T05:37:29.480Z,94932.44
2022-11-13T05:40:14.927Z,94932.69
2022-11-13T05:43:00.278Z,94923.41
2022-11-13T05:45:45.382Z,94925.28
2022-11-13T05:48:31.844Z,94923.25
2022-11-13T05:51:20.027Z,94913.75
2022-11-13T05:54:06.245Z,94906.84
2022-11-13T05:56:51.129Z,94901.03
2022-11-13T05:59:36.522Z,94902.38
2022-11-13T06:02:21.748Z,94899.19
2022-11-13T06:05:07.493Z,94896.03
2022-11-13T06:07:52.508Z,94892.34
2022-11-13T06:10:37.920Z,94895.53
2022-11-13T06:13:23.173Z,94896.03
2022-11-13T06:16:17.040Z,94906.59
2022-11-13T06:19:04.489Z,94903.66
2022-11-13T06:21:49.844Z,94911.03
2022-11-13T06:24:34.875Z,94916.03
2022-11-13T06:27:20.102Z,94910.22
2022-11-13T06:30:06.057Z,94911.28
2022-11-13T06:32:54.946Z,94901.75
2022-11-13T06:35:40.249Z,94914.75
2022-11-13T06:38:25.998Z,94908.63
2022-11-13T06:41:14.614Z,94908.09
2022-11-13T06:44:03.155Z,94901.47
2022-11-13T06:46:48.509Z,94891.66
2022-11-13T06:49:33.991Z,94886.66
2022-11-13T06:52:19.452Z,94890.66
2022-11-13T06:55:05.174Z,94879.56
2022-11-13T06:57:50.169Z,94879.09
2022-11-13T07:00:37.649Z,94877.00
2022-11-13T07:03:26.825Z,94877.81
2022-11-13T07:06:14.947Z,94874.13
2022-11-13T07:09:00.274Z,94879.16
2022-11-13T07:11:45.769Z,94881.28
2022-11-13T07:14:31.041Z,94872.53
2022-11-13T07:17:16.293Z,94868.56
2022-11-13T07:20:01.698Z,94868.59
2022-11-13T07:22:46.903Z,94861.47
2022-11-13T07:25:32.905Z,94856.44
2022-11-13T07:28:18.137Z,94854.59
2022-11-13T07:31:03.459Z,94849.25
2022-11-13T07:33:50.176Z,94842.50
2022-11-13T07:36:35.210Z,94839.63
2022-11-13T07:39:20.542Z,94850.28
2022-11-13T07:42:05.892Z,94846.91
2022-11-13T07:44:55.243Z,94849.69
2022-11-13T07:47:41.021Z,94852.06
2022-11-13T07:50:28.572Z,94844.03
2022-11-13T07:53:14.126Z,94839.09
2022-11-13T07:56:03.940Z,94835.06
2022-11-13T07:58:49.428Z,94828.50
2022-11-13T08:01:34.892Z,94827.78
2022-11-13T08:04:20.323Z,94805.28
2022-11-13T08:07:05.661Z,94795.91
2022-11-13T08:09:51.061Z,94797.38
2022-11-13T08:12:36.201Z,94801.03
2022-11-13T08:15:21.414Z,94800.94
2022-11-13T08:18:07.004Z,94801.81
2022-11-13T08:20:51.901Z,94793.81
2022-11-13T08:23:37.332Z,94799.56
2022-11-13T08:26:22.989Z,94784.31
2022-11-13T08:29:08.368Z,94781.69
2022-11-13T08:31:53.602Z,94792.72
2022-11-13T08:34:38.950Z,94789.09
2022-11-13T08:37:24.369Z,94791.53
2022-11-13T08:40:10.661Z,94785.38
2022-11-13T08:43:03.414Z,94783.53
2022-11-13T08:45:48.489Z,94786.22
2022-11-13T08:48:34.366Z,94784.22
2022-11-13T08:51:19.527Z,94787.88
2022-11-13T08:54:05.030Z,94783.72
2022-11-13T08:56:54.609Z,94783.66
2022-11-13T08:59:41.016Z,94794.09
2022-11-13T09:02:27.154Z,94798.72
2022-11-13T09:05:12.621Z,94790.56
2022-11-13T09:07:59.377Z,94806.00
2022-11-13T09:10:44.693Z,94805.13
2022-11-13T09:13:30.346Z,94798.22
2022-11-13T09:16:15.689Z,94808.31
2022-11-13T09:19:00.899Z,94802.81
2022-11-13T09:21:47.075Z,94797.06
2022-11-13T09:24:32.381Z,94800.06
2022-11-13T09:27:18.269Z,94813.78
2022-11-13T09:30:03.988Z,94792.72
2022-11-13T09:32:52.411Z,94795.06
2022-11-13T09:35:37.578Z,94802.66
2022-11-13T09:38:23.334Z,94789.84
2022-11-13T09:41:19.478Z,94776.75
2022-11-13T09:44:43.520Z,94775.00
2022-11-13T09:47:33.232Z,94776.00
2022-11-13T09:50:25.009Z,94773.97
2022-11-13T09:53:13.431Z,94770.66
2022-11-13T09:56:12.730Z,94786.84
2022-11-13T09:59:02.419Z,94766.41
2022-11-13T10:01:50.737Z,94767.38
2022-11-13T10:04:53.556Z,94761.97
2022-11-13T10:07:51.058Z,94764.69
2022-11-13T10:11:13.326Z,94758.47
2022-11-13T10:14:03.181Z,94745.50
2022-11-13T10:16:56.389Z,94759.28
2022-11-13T10:19:57.130Z,94749.53
2022-11-13T10:22:56.000Z,94741.09
2022-11-13T10:25:42.612Z,94729.59
2022-11-13T10:28:49.629Z,94720.00
2022-11-13T10:31:44.498Z,94716.59
2022-11-13T10:34:29.834Z,94711.97
2022-11-13T10:37:31.945Z,94731.44
2022-11-13T10:40:28.407Z,94736.50
2022-11-13T10:43:18.449Z,94729.59
2022-11-13T10:46:06.636Z,94725.03
2022-11-13T10:48:52.168Z,94718.13
2022-11-13T10:51:37.291Z,94707.84
2022-11-13T10:54:28.870Z,94691.38
2022-11-13T10:57:30.301Z,94689.13
2022-11-13T11:00:23.982Z,94683.50
2022-11-13T11:03:22.463Z,94675.94
2022-11-13T11:06:08.681Z,94674.47
2022-11-13T11:08:53.754Z,94667.09
2022-11-13T11:11:57.570Z,94658.75
2022-11-13T11:14:59.696Z,94645.66
2022-11-13T11:18:05.239Z,94643.63
2022-11-13T11:20:57.606Z,94642.84
2022-11-13T11:23:49.534Z,94637.78
2022-11-13T11:26:47.507Z,94630.84
2022-11-13T11:29:41.578Z,94624.88
2022-11-13T11:32:37.546Z,94613.19
2022-11-13T11:35:28.243Z,94607.59
2022-11-13T11:38:41.886Z,94595.25
2022-11-13T11:41:36.580Z,94580.56
2022-11-13T11:44:42.361Z,94575.19
2022-11-13T11:47:27.864Z,94566.03
2022-11-13T11:50:15.756Z,94564.13
2022-11-13T11:53:10.323Z,94558.56
2022-11-13T11:56:31.690Z,94566.91
2022-11-13T11:59:31.507Z,94559.72
2022-11-13T12:02:28.689Z,94556.69
2022-11-13T12:05:35.748Z,94546.69
2022-11-13T12:08:51.195Z,94538.03
2022-11-13T12:11:47.471Z,94538.03
2022-11-13T12:14:40.720Z,94528.19
2022-11-13T12:17:39.558Z,94533.41
2022-11-13T12:20:39.675Z,94539.25
2022-11-13T12:23:34.220Z,94547.81
2022-11-13T12:26:37.680Z,94542.84
2022-11-13T12:29:45.506Z,94521.66
2022-11-13T12:32:37.481Z,94516.13
2022-11-13T12:35:25.897Z,94516.88
2022-11-13T12:38:47.881Z,94511.88
2022-11-13T12:41:49.628Z,94514.84
2022-11-13T12:44:46.964Z,94497.63
2022-11-13T12:47:35.040Z,94501.41
2022-11-13T12:50:31.409Z,94493.84
2022-11-13T12:53:27.961Z,94481.00
2022-11-13T12:56:26.057Z,94483.47
2022-11-13T12:59:43.202Z,94487.16
2022-11-13T13:02:55.922Z,94483.16
2022-11-13T13:05:47.251Z,94479.75
2022-11-13T13:08:57.724Z,94480.31
2022-11-13T13:11:57.861Z,94483.69
2022-11-13T13:15:05.812Z,94478.31
2022-11-13T13:18:11.793Z,94470.25
2022-11-13T13:20:59.715Z,94478.31
2022-11-13T13:23:50.454Z,94475.53
2022-11-13T13:26:45.968Z,94474.94
2022-11-13T13:29:33.574Z,94477.97
2022-11-13T13:32:46.070Z,94474.88
2022-11-13T13:35:47.132Z,94478.81
2022-11-13T13:38:35.221Z,94490.41
2022-11-13T13:41:51.728Z,94482.44
2022-11-13T13:45:00.623Z,94472.78
2022-11-13T13:47:49.406Z,94475.72
2022-11-13T13:50:41.874Z,94475.66
2022-11-13T13:53:33.562Z,94482.59
2022-11-13T13:56:21.101Z,94490.38
2022-11-13T13:59:14.050Z,94475.69
2022-11-13T14:02:02.650Z,94482.69
2022-11-13T14:04:50.552Z,94481.22
2022-11-13T14:07:35.904Z,94476.84
2022-11-13T14:10:23.999Z,94476.63
2022-11-13T14:13:13.585Z,94482.31
2022-11-13T14:16:07.149Z,94487.50
2022-11-13T14:19:03.503Z,94487.34
2022-11-13T14:21:54.052Z,94482.97
2022-11-13T14:25:00.333Z,94474.84
2022-11-13T14:27:45.854Z,94477.75
2022-11-13T14:30:31.816Z,94459.47
2022-11-13T14:33:23.803Z,94453.81
2022-11-13T14:36:09.465Z,94452.38
2022-11-13T14:38:55.015Z,94463.56
2022-11-13T14:41:49.367Z,94458.72
2022-11-13T14:44:36.430Z,94467.38
2022-11-13T14:47:21.937Z,94460.94
2022-11-13T14:50:27.853Z,94465.66
2022-11-13T14:53:13.079Z,94451.47
2022-11-13T14:56:02.065Z,94455.09
2022-11-13T14:58:47.479Z,94448.31
2022-11-13T15:01:32.825Z,94452.22
2022-11-13T15:04:17.994Z,94444.47
2022-11-13T15:07:27.089Z,94433.13
2022-11-13T15:10:15.893Z,94432.13
2022-11-13T15:13:01.152Z,94423.63
2022-11-13T15:15:46.562Z,94411.97
2022-11-13T15:18:32.317Z,94418.41
2022-11-13T15:21:18.590Z,94407.44
2022-11-13T15:24:03.868Z,94419.81
2022-11-13T15:26:49.088Z,94419.47
2022-11-13T15:29:34.449Z,94419.16
2022-11-13T15:32:19.856Z,94424.44
2022-11-13T15:35:07.208Z,94418.59
2022-11-13T15:37:52.793Z,94411.19
2022-11-13T15:40:39.188Z,94416.06
2022-11-13T15:43:24.549Z,94411.44
2022-11-13T15:46:18.184Z,94407.84
2022-11-13T15:49:03.535Z,94412.81
2022-11-13T15:51:49.805Z,94411.50
2022-11-13T15:54:37.910Z,94410.78
2022-11-13T15:57:25.916Z,94418.31
2022-11-13T16:00:18.498Z,94411.50
2022-11-13T16:03:11.065Z,94413.22
2022-11-13T16:06:00.798Z,94417.22
2022-11-13T16:08:46.006Z,94417.81
2022-11-13T16:11:33.112Z,94421.88
2022-11-13T16:14:23.422Z,94409.91
2022-11-13T16:17:22.408Z,94412.91
2022-11-13T16:20:12.689Z,94422.31
2022-11-13T16:22:58.069Z,94413.53
2022-11-13T16:25:48.070Z,94410.19
2022-11-13T16:28:37.576Z,94408.59
2022-11-13T16:31:37.981Z,94413.44
2022-11-13T16:34:23.468Z,94408.69
2022-11-13T16:37:28.976Z,94407.63
2022-11-13T16:40:19.199Z,94404.28
2022-11-13T16:43:04.394Z,94404.91
2022-11-13T16:45:49.816Z,94409.06
2022-11-13T16:48:35.124Z,94413.09
2022-11-13T16:51:20.618Z,94416.56
2022-11-13T16:54:05.926Z,94417.16
2022-11-13T16:56:51.284Z,94415.38
2022-11-13T16:59:36.587Z,94410.19
2022-11-13T17:02:21.806Z,94401.41
2022-11-13T17:05:10.988Z,94401.22
2022-11-13T17:07:59.662Z,94393.81
2022-11-13T17:10:44.686Z,94408.31
2022-11-13T17:13:30.329Z,94388.19
2022-11-13T17:16:16.077Z,94393.25
2022-11-13T17:19:01.907Z,94404.38
2022-11-13T17:21:47.340Z,94396.81
2022-11-13T17:24:32.515Z,94394.16
2022-11-13T17:27:18.199Z,94392.25
2022-11-13T17:30:04.121Z,94392.75
2022-11-13T17:32:49.400Z,94394.53
2022-11-13T17:35:35.065Z,94397.97
2022-11-13T17:38:20.274Z,94400.44
2022-11-13T17:41:11.500Z,94396.00
2022-11-13T17:44:01.073Z,94406.94
2022-11-13T17:46:48.092Z,94397.66
2022-11-13T17:49:33.260Z,94395.41
2022-11-13T17:52:18.727Z,94391.75
2022-11-13T17:55:06.252Z,94398.75
2022-11-13T17:57:51.996Z,94398.94
2022-11-13T18:00:36.893Z,94386.22
2022-11-13T18:03:22.145Z,94393.72
2022-11-13T18:06:11.926Z,94388.09
2022-11-13T18:08:58.473Z,94389.19
2022-11-13T18:11:43.745Z,94373.38
2022-11-13T18:14:29.137Z,94378.41
2022-11-13T18:17:14.556Z,94374.81
2022-11-13T18:20:02.076Z,94375.00
2022-11-13T18:22:47.649Z,94378.53
2022-11-13T18:25:39.507Z,94372.94
2022-11-13T18:28:25.267Z,94364.75
2022-11-13T18:31:16.962Z,94365.81
2022-11-13T18:34:04.928Z,94360.50
2022-11-13T18:36:50.689Z,94363.66
2022-11-13T18:39:35.822Z,94366.72
2022-11-13T18:42:21.189Z,94355.41
2022-11-13T18:45:07.273Z,94347.91
2022-11-13T18:47:52.197Z,94341.81
2022-11-13T18:50:37.649Z,94342.59
2022-11-13T18:53:23.036Z,94341.81
2022-11-13T18:56:12.827Z,94331.16
2022-11-13T18:58:59.437Z,94325.91
2022-11-13T19:01:45.573Z,94329.47
2022-11-13T19:04:30.749Z,94331.19
2022-11-13T19:07:16.179Z,94327.75
2022-11-13T19:10:02.333Z,94340.69
2022-11-13T19:12:47.691Z,94347.03
2022-11-13T19:15:36.202Z,94344.53
2022-11-13T19:18:21.359Z,94340.03
2022-11-13T19:21:12.438Z,94337.25
2022-11-13T19:23:59.789Z,94326.34
2022-11-13T19:26:45.936Z,94321.31
2022-11-13T19:29:31.526Z,94345.56
2022-11-13T19:32:16.955Z,94343.81
2022-11-13T19:35:02.121Z,94338.72
2022-11-13T19:37:47.431Z,94330.94
2022-11-13T19:40:32.681Z,94340.00
2022-11-13T19:43:18.370Z,94343.22
2022-11-13T19:46:12.865Z,94335.28
2022-11-13T19:48:58.053Z,94332.34
2022-11-13T19:51:43.257Z,94346.34
2022-11-13T19:54:28.609Z,94338.38
2022-11-13T19:57:14.093Z,94343.53
2022-11-13T19:59:59.288Z,94346.34
2022-11-13T20:02:44.775Z,94345.50
2022-11-13T20:05:30.298Z,94341.25
2022-11-13T20:08:15.584Z,94335.88
2022-11-13T20:11:03.343Z,94323.47
2022-11-13T20:13:48.449Z,94318.97
2022-11-13T20:16:33.771Z,94328.78
2022-11-13T20:19:19.362Z,94330.16
2022-11-13T20:22:04.739Z,94328.84
2022-11-13T20:24:50.023Z,94324.84
2022-11-13T20:27:37.421Z,94327.78
2022-11-13T20:30:23.110Z,94315.56
2022-11-13T20:33:08.576Z,94325.06
2022-11-13T20:35:54.720Z,94324.25
2022-11-13T20:38:41.194Z,94313.16
2022-11-13T20:41:26.668Z,94313.50
2022-11-13T20:44:12.473Z,94300.28
2022-11-13T20:46:57.884Z,94287.63
2022-11-13T20:49:43.151Z,94291.47
2022-11-13T20:52:28.434Z,94299.00
2022-11-13T20:55:13.515Z,94310.69
2022-11-13T20:57:58.789Z,94308.63
2022-11-13T21:00:44.233Z,94306.47
2022-11-13T21:03:29.494Z,94314.84
2022-11-13T21:06:21.392Z,94321.53
2022-11-13T21:09:07.005Z,94317.38
2022-11-13T21:11:52.241Z,94316.50
2022-11-13T21:14:37.652Z,94305.97
2022-11-13T21:17:22.947Z,94312.88
2022-11-13T21:20:08.970Z,94320.22
2022-11-13T21:22:54.413Z,94306.38
2022-11-13T21:25:39.660Z,94299.09
2022-11-13T21:28:29.290Z,94300.59
2022-11-13T21:31:19.804Z,94298.44
2022-11-13T21:34:04.792Z,94289.06
2022-11-13T21:36:51.748Z,94279.28
2022-11-13T21:39:37.083Z,94286.47
2022-11-13T21:42:22.111Z,94281.94
2022-11-13T21:45:08.079Z,94281.88
2022-11-13T21:47:53.727Z,94285.53
2022-11-13T21:50:39.320Z,94286.81
2022-11-13T21:53:24.683Z,94279.44
2022-11-13T21:56:15.401Z,94272.75
2022-11-13T21:59:01.622Z,94272.75
2022-11-13T22:01:47.244Z,94269.25
2022-11-13T22:04:32.769Z,94268.19
2022-11-13T22:07:18.131Z,94272.63
2022-11-13T22:10:08.152Z,94277.50
2022-11-13T22:12:53.905Z,94277.31
2022-11-13T22:15:38.820Z,94279.63
2022-11-13T22:18:24.757Z,94274.94
2022-11-13T22:21:12.249Z,94279.00
2022-11-13T22:23:58.263Z,94279.78
2022-11-13T22:26:48.496Z,94273.47
2022-11-13T22:29:33.516Z,94276.63
2022-11-13T22:32:18.767Z,94264.88
2022-11-13T22:35:04.346Z,94257.22
2022-11-13T22:37:49.344Z,94253.00
2022-11-13T22:40:34.670Z,94249.81
2022-11-13T22:43:20.310Z,94252.47
2022-11-13T22:46:08.116Z,94256.94
2022-11-13T22:48:55.417Z,94256.50
2022-11-13T22:51:41.700Z,94253.91
2022-11-13T22:54:26.884Z,94264.50
2022-11-13T22:57:12.813Z,94286.13
2022-11-13T22:59:57.861Z,94277.38
2022-11-13T23:02:47.230Z,94271.56
2022-11-13T23:05:35.831Z,94272.34
2022-11-13T23:08:21.428Z,94267.31
2022-11-13T23:11:08.369Z,94258.34
2022-11-13T23:13:56.634Z,94251.41
2022-11-13T23:16:42.956Z,94240.28
2022-11-13T23:19:28.235Z,94236.00
2022-11-13T23:22:13.646Z,94243.38
2022-11-13T23:24:58.947Z,94243.00
2022-11-13T23:27:44.195Z,94245.44
2022-11-13T23:30:30.157Z,94232.06
2022-11-13T23:33:15.965Z,94231.66
2022-11-13T23:36:01.655Z,94213.63
2022-11-13T23:38:47.537Z,94228.31
2022-11-13T23:41:32.778Z,94221.34
2022-11-13T23:44:18.012Z,94224.78
2022-11-13T23:47:03.853Z,94213.47
2022-11-13T23:49:49.317Z,94212.69
2022-11-13T23:52:34.452Z,94223.28
2022-11-13T23:55:21.388Z,94222.69
2022-11-13T23:58:11.014Z,94225.34
